Time;durP1;ratioP1;P1;durP2;ratioP2;P2;SDS_P1;SDS_P2;PMS_P1;PMS_P2;Temp;Humidity;BMP_temperature;BMP_pressure;BME280_temperature;BME280_humidity;BME280_pressure;Samples;Min_cycle;Max_cycle;Signal;HPM_P1;HPM_P2
2021/07/02 00:00:28;;;;;;;;;;;27.70;50.60;;;;;;5135145;27;19935;-58
2021/07/02 00:02:55;;;;;;;;;;;27.70;50.60;;;;;;5132894;27;19930;-58
2021/07/02 00:05:22;;;;;;;;;;;27.70;51.20;;;;;;5118526;27;19923;-58
2021/07/02 00:07:49;;;;;;;;;;;27.70;50.60;;;;;;5134760;27;19944;-59
2021/07/02 00:10:16;;;;;;;;;;;27.70;50.60;;;;;;5133998;27;19923;-58
2021/07/02 00:12:43;;;;;;;;;;;27.70;50.60;;;;;;5135142;27;19923;-58
2021/07/02 00:15:11;;;;;;;;;;;27.70;50.60;;;;;;5134644;27;19927;-58
2021/07/02 00:17:38;;;;;;;;;;;27.70;50.60;;;;;;5132393;27;19930;-58
2021/07/02 00:20:05;;;;;;;;;;;27.70;50.60;;;;;;5133517;27;19927;-58
2021/07/02 00:22:35;;;;;;;;;;;27.70;50.60;;;;;;5134256;27;19967;-58
2021/07/02 00:25:03;;;;;;;;;;;27.70;50.60;;;;;;5135621;27;19954;-58
2021/07/02 00:27:30;;;;;;;;;;;27.70;50.60;;;;;;5100021;27;20020;-58
2021/07/02 00:29:57;;;;;;;;;;;27.70;50.60;;;;;;5117210;27;20359;-58
2021/07/02 00:32:24;;;;;;;;;;;27.70;50.60;;;;;;5115641;28;20361;-58
2021/07/02 00:34:51;;;;;;;;;;;27.70;50.60;;;;;;5117130;27;20437;-58
2021/07/02 00:37:18;;;;;;;;;;;27.70;50.60;;;;;;5135162;27;19980;-58
2021/07/02 00:39:45;;;;;;;;;;;27.70;50.60;;;;;;5133665;27;19927;-58
2021/07/02 00:42:12;;;;;;;;;;;27.70;50.60;;;;;;5134189;27;20413;-58
2021/07/02 00:44:43;;;;;;;;;;;27.70;50.60;;;;;;5133302;27;19924;-58
2021/07/02 00:47:11;;;;;;;;;;;27.70;50.60;;;;;;5134470;27;20002;-58
2021/07/02 00:49:39;;;;;;;;;;;27.70;50.60;;;;;;5134661;27;19923;-58
2021/07/02 00:52:06;;;;;;;;;;;27.70;50.60;;;;;;5133005;27;20018;-58
2021/07/02 00:54:34;;;;;;;;;;;27.70;50.60;;;;;;5131517;27;20336;-58
2021/07/02 00:57:02;;;;;;;;;;;27.70;50.70;;;;;;5134521;27;19927;-58
2021/07/02 00:59:29;;;;;;;;;;;27.70;50.70;;;;;;5133604;27;19923;-58
2021/07/02 01:01:56;;;;;;;;;;;27.70;50.70;;;;;;5135154;27;19972;-58
2021/07/02 01:04:24;;;;;;;;;;;27.70;50.70;;;;;;5133036;27;19945;-58
2021/07/02 01:06:51;;;;;;;;;;;27.60;50.70;;;;;;5116860;27;19927;-58
2021/07/02 01:09:19;;;;;;;;;;;27.60;50.70;;;;;;5130328;27;19923;-58
2021/07/02 01:11:46;;;;;;;;;;;27.70;50.70;;;;;;5131538;27;20337;-58
2021/07/02 01:14:13;;;;;;;;;;;27.60;50.70;;;;;;5131493;27;20003;-58
2021/07/02 01:16:40;;;;;;;;;;;27.70;50.80;;;;;;5133896;27;19924;-58
2021/07/02 01:19:08;;;;;;;;;;;27.60;50.70;;;;;;5131564;27;19923;-58
2021/07/02 01:21:35;;;;;;;;;;;27.60;50.70;;;;;;5117912;27;19923;-58
2021/07/02 01:24:02;;;;;;;;;;;27.60;50.70;;;;;;5117880;27;19923;-58
2021/07/02 01:26:30;;;;;;;;;;;27.60;50.70;;;;;;5116357;27;19924;-58
2021/07/02 01:28:57;;;;;;;;;;;27.60;50.70;;;;;;5114918;27;19999;-59
2021/07/02 01:31:24;;;;;;;;;;;27.60;50.70;;;;;;5134719;27;20003;-58
2021/07/02 01:33:51;;;;;;;;;;;27.60;50.70;;;;;;5133854;27;19923;-58
2021/07/02 01:36:22;;;;;;;;;;;27.60;50.70;;;;;;5120426;27;19924;-58
2021/07/02 01:38:50;;;;;;;;;;;27.60;50.70;;;;;;5131443;27;20002;-58
2021/07/02 01:41:17;;;;;;;;;;;27.60;50.70;;;;;;5112736;27;19932;-58
2021/07/02 01:43:44;;;;;;;;;;;27.60;50.70;;;;;;5133587;27;19973;-58
2021/07/02 01:46:11;;;;;;;;;;;27.60;50.70;;;;;;5132987;27;19978;-58
2021/07/02 01:48:38;;;;;;;;;;;27.60;50.70;;;;;;5130550;27;19956;-58
2021/07/02 01:51:05;;;;;;;;;;;27.60;50.70;;;;;;5132074;27;20343;-58
2021/07/02 01:53:32;;;;;;;;;;;27.60;50.70;;;;;;5113665;27;19927;-58
2021/07/02 01:55:59;;;;;;;;;;;27.60;50.70;;;;;;5132351;27;19929;-58
2021/07/02 01:58:26;;;;;;;;;;;27.60;50.70;;;;;;5132481;27;19927;-58
2021/07/02 02:00:53;;;;;;;;;;;27.60;50.70;;;;;;5131934;27;19931;-59
2021/07/02 02:03:20;;;;;;;;;;;27.60;50.70;;;;;;5130743;27;19967;-59
2021/07/02 02:05:48;;;;;;;;;;;27.60;50.70;;;;;;5131545;27;19929;-58
2021/07/02 02:08:15;;;;;;;;;;;27.60;50.70;;;;;;5131631;27;19967;-58
2021/07/02 02:10:42;;;;;;;;;;;27.60;50.70;;;;;;5132915;27;19973;-58
2021/07/02 02:13:09;;;;;;;;;;;27.60;50.70;;;;;;5129326;27;20394;-58
2021/07/02 02:15:36;;;;;;;;;;;27.60;50.70;;;;;;5116875;27;19924;-58
2021/07/02 02:18:04;;;;;;;;;;;27.60;50.70;;;;;;5132730;27;19927;-58
2021/07/02 02:20:31;;;;;;;;;;;27.60;50.70;;;;;;5129967;27;20444;-58
2021/07/02 02:22:58;;;;;;;;;;;27.60;50.70;;;;;;5133664;27;19988;-59
2021/07/02 02:25:25;;;;;;;;;;;27.60;50.70;;;;;;5132382;27;19923;-58
2021/07/02 02:27:52;;;;;;;;;;;27.60;50.70;;;;;;5132815;27;19962;-58
2021/07/02 02:30:19;;;;;;;;;;;27.60;50.70;;;;;;5114885;27;19927;-58
2021/07/02 02:32:46;;;;;;;;;;;27.60;50.70;;;;;;5134326;27;19971;-58
2021/07/02 02:35:13;;;;;;;;;;;27.60;50.70;;;;;;5129365;27;19977;-58
2021/07/02 02:37:40;;;;;;;;;;;27.60;50.70;;;;;;5129830;27;19923;-58
2021/07/02 02:40:07;;;;;;;;;;;27.60;50.70;;;;;;5132134;27;20439;-58
2021/07/02 02:42:34;;;;;;;;;;;27.60;50.70;;;;;;5130924;27;19953;-58
2021/07/02 02:45:03;;;;;;;;;;;27.60;50.70;;;;;;5133500;28;19927;-58
2021/07/02 02:47:30;;;;;;;;;;;27.60;50.70;;;;;;5132064;28;19924;-58
2021/07/02 02:49:57;;;;;;;;;;;27.60;50.70;;;;;;5131082;28;19923;-58
2021/07/02 02:52:24;;;;;;;;;;;27.60;50.70;;;;;;5129732;28;19988;-58
2021/07/02 02:54:51;;;;;;;;;;;27.60;50.70;;;;;;5131016;28;19923;-58
2021/07/02 02:57:18;;;;;;;;;;;27.60;50.80;;;;;;5129904;28;20364;-58
2021/07/02 02:59:45;;;;;;;;;;;27.60;50.70;;;;;;5130927;27;19924;-58
2021/07/02 03:02:12;;;;;;;;;;;27.60;50.80;;;;;;5135026;27;19935;-58
2021/07/02 03:04:39;;;;;;;;;;;27.60;50.70;;;;;;5133997;27;19935;-58
2021/07/02 03:07:06;;;;;;;;;;;27.60;50.80;;;;;;5134978;27;20007;-58
2021/07/02 03:09:34;;;;;;;;;;;27.60;50.70;;;;;;5118453;27;20071;-59
2021/07/02 03:12:03;;;;;;;;;;;27.60;50.70;;;;;;5135634;27;20002;-58
2021/07/02 03:14:30;;;;;;;;;;;27.60;50.70;;;;;;5133972;27;20006;-58
2021/07/02 03:16:57;;;;;;;;;;;27.60;50.70;;;;;;5135133;27;19923;-58
2021/07/02 03:19:23;;;;;;;;;;;27.50;50.70;;;;;;5135444;27;20008;-58
2021/07/02 03:21:50;;;;;;;;;;;27.50;50.70;;;;;;5135605;27;19969;-58
2021/07/02 03:24:17;;;;;;;;;;;27.50;50.70;;;;;;5137379;27;20401;-58
2021/07/02 03:26:45;;;;;;;;;;;27.50;50.70;;;;;;5137611;27;19923;-58
2021/07/02 03:29:11;;;;;;;;;;;27.50;50.70;;;;;;5136097;27;20421;-58
2021/07/02 03:31:39;;;;;;;;;;;27.50;50.70;;;;;;5134999;27;20014;-58
2021/07/02 03:34:06;;;;;;;;;;;27.50;50.60;;;;;;5134649;27;19923;-58
2021/07/02 03:36:33;;;;;;;;;;;27.50;50.60;;;;;;5132900;27;20318;-58
2021/07/02 03:39:01;;;;;;;;;;;27.50;50.60;;;;;;5135827;27;19927;-58
2021/07/02 03:41:27;;;;;;;;;;;27.50;50.60;;;;;;5128566;27;19971;-59
2021/07/02 03:43:58;;;;;;;;;;;27.50;50.60;;;;;;5128285;27;20006;-58
2021/07/02 03:46:26;;;;;;;;;;;27.60;50.70;;;;;;5127942;27;19923;-58
2021/07/02 03:48:55;;;;;;;;;;;27.50;50.60;;;;;;5118943;27;19923;-58
2021/07/02 03:51:22;;;;;;;;;;;27.60;50.70;;;;;;5134129;27;20382;-58
2021/07/02 03:53:49;;;;;;;;;;;27.60;50.70;;;;;;5133786;27;19932;-58
2021/07/02 03:56:16;;;;;;;;;;;27.60;51.20;;;;;;5127656;28;19953;-58
2021/07/02 03:58:43;;;;;;;;;;;27.60;50.60;;;;;;5118073;28;19971;-58
2021/07/02 04:01:10;;;;;;;;;;;27.60;50.70;;;;;;5115628;28;19924;-58
2021/07/02 04:03:37;;;;;;;;;;;27.60;50.60;;;;;;5115850;28;19923;-58
2021/07/02 04:06:04;;;;;;;;;;;27.60;50.60;;;;;;5132544;28;19923;-58
2021/07/02 04:08:31;;;;;;;;;;;27.50;50.60;;;;;;5130413;28;20003;-58
2021/07/02 04:10:58;;;;;;;;;;;27.60;50.70;;;;;;5116672;27;19927;-58
2021/07/02 04:13:25;;;;;;;;;;;27.60;50.70;;;;;;5117112;28;19962;-58
2021/07/02 04:15:53;;;;;;;;;;;27.60;50.70;;;;;;5132733;28;19964;-58
2021/07/02 04:18:21;;;;;;;;;;;27.60;50.60;;;;;;5133423;28;19923;-58
2021/07/02 04:20:48;;;;;;;;;;;27.60;50.70;;;;;;5133077;28;19923;-59
2021/07/02 04:23:15;;;;;;;;;;;27.60;50.70;;;;;;5132950;28;20010;-58
2021/07/02 04:25:42;;;;;;;;;;;27.60;50.70;;;;;;5134108;28;19988;-58
2021/07/02 04:28:09;;;;;;;;;;;27.60;50.70;;;;;;5133818;28;20013;-58
2021/07/02 04:30:36;;;;;;;;;;;27.60;50.70;;;;;;5133648;28;20007;-58
2021/07/02 04:33:03;;;;;;;;;;;27.60;50.70;;;;;;5132817;28;20319;-58
2021/07/02 04:35:30;;;;;;;;;;;27.60;50.70;;;;;;5134090;28;20391;-58
2021/07/02 04:37:57;;;;;;;;;;;27.60;50.70;;;;;;5131353;28;20013;-58
2021/07/02 04:40:24;;;;;;;;;;;27.60;50.70;;;;;;5133325;28;19970;-58
2021/07/02 04:42:51;;;;;;;;;;;27.60;50.70;;;;;;5132013;28;19923;-58
2021/07/02 04:45:18;;;;;;;;;;;27.60;50.70;;;;;;5133688;28;20351;-58
2021/07/02 04:47:45;;;;;;;;;;;27.60;50.70;;;;;;5130986;28;19972;-58
2021/07/02 04:50:12;;;;;;;;;;;27.60;50.70;;;;;;5124444;28;19928;-58
2021/07/02 04:52:39;;;;;;;;;;;27.60;50.70;;;;;;5115331;28;19924;-58
2021/07/02 04:55:06;;;;;;;;;;;27.60;50.70;;;;;;5049539;27;2000104;-58
2021/07/02 04:57:33;;;;;;;;;;;27.60;50.70;;;;;;5135234;27;19931;-58
2021/07/02 05:00:04;;;;;;;;;;;27.60;50.70;;;;;;5118404;27;19972;-58
2021/07/02 05:02:31;;;;;;;;;;;27.60;50.60;;;;;;5132868;27;20379;-58
2021/07/02 05:04:58;;;;;;;;;;;27.60;50.60;;;;;;5132804;27;19970;-57
2021/07/02 05:07:25;;;;;;;;;;;27.60;50.60;;;;;;5132745;27;19924;-58
2021/07/02 05:09:53;;;;;;;;;;;27.60;50.60;;;;;;5132879;27;20659;-59
2021/07/02 05:12:20;;;;;;;;;;;27.60;50.60;;;;;;5133573;27;20036;-59
2021/07/02 05:14:47;;;;;;;;;;;27.60;50.60;;;;;;5133702;27;20357;-59
2021/07/02 05:17:14;;;;;;;;;;;27.60;50.60;;;;;;5132556;27;19927;-58
2021/07/02 05:19:41;;;;;;;;;;;27.60;50.60;;;;;;5134105;27;20324;-58
2021/07/02 05:22:13;;;;;;;;;;;27.60;50.60;;;;;;5131679;27;19924;-58
2021/07/02 05:24:40;;;;;;;;;;;27.70;50.60;;;;;;5131969;27;20009;-57
2021/07/02 05:27:08;;;;;;;;;;;27.60;50.50;;;;;;5132567;27;19924;-58
2021/07/02 05:29:35;;;;;;;;;;;27.70;50.60;;;;;;5132018;27;19923;-58
2021/07/02 05:32:03;;;;;;;;;;;27.70;50.60;;;;;;5130877;27;19931;-58
2021/07/02 05:34:30;;;;;;;;;;;27.70;50.50;;;;;;5133770;27;19953;-59
2021/07/02 05:36:57;;;;;;;;;;;27.70;50.50;;;;;;5131676;27;19949;-59
2021/07/02 05:39:24;;;;;;;;;;;27.70;50.40;;;;;;5131962;27;20010;-59
2021/07/02 05:41:51;;;;;;;;;;;27.70;50.40;;;;;;5131979;27;19968;-59
2021/07/02 05:44:18;;;;;;;;;;;27.70;50.40;;;;;;5132443;27;19952;-59
2021/07/02 05:46:45;;;;;;;;;;;27.80;50.40;;;;;;5125504;27;20298;-49
2021/07/02 05:49:13;;;;;;;;;;;27.80;50.30;;;;;;5123499;27;19931;-51
2021/07/02 05:51:40;;;;;;;;;;;27.80;50.90;;;;;;5127119;27;19965;-52
2021/07/02 05:54:09;;;;;;;;;;;27.80;50.30;;;;;;5122555;27;19923;-58
2021/07/02 05:56:36;;;;;;;;;;;27.80;50.30;;;;;;5132262;27;19972;-58
2021/07/02 05:59:03;;;;;;;;;;;27.80;50.20;;;;;;5130802;27;19963;-59
2021/07/02 06:01:30;;;;;;;;;;;27.90;50.30;;;;;;5118259;27;19924;-58
2021/07/02 06:03:57;;;;;;;;;;;27.80;50.20;;;;;;5133033;27;19977;-58
2021/07/02 06:06:24;;;;;;;;;;;27.90;50.30;;;;;;5132829;27;19931;-58
2021/07/02 06:08:52;;;;;;;;;;;27.90;50.30;;;;;;5133554;27;20023;-59
2021/07/02 06:11:20;;;;;;;;;;;27.90;50.40;;;;;;5134045;27;19923;-58
2021/07/02 06:13:47;;;;;;;;;;;27.90;50.30;;;;;;5133161;27;19984;-58
2021/07/02 06:16:15;;;;;;;;;;;27.90;50.30;;;;;;5132181;27;19923;-58
2021/07/02 06:18:42;;;;;;;;;;;27.90;50.30;;;;;;5134404;27;19967;-58
2021/07/02 06:21:09;;;;;;;;;;;27.90;50.30;;;;;;5131429;27;20336;-59
2021/07/02 06:23:37;;;;;;;;;;;27.80;50.20;;;;;;5133779;27;20006;-59
2021/07/02 06:26:05;;;;;;;;;;;27.90;50.30;;;;;;5131504;27;19976;-58
2021/07/02 06:28:32;;;;;;;;;;;27.90;50.30;;;;;;5115372;27;19924;-59
2021/07/02 06:30:59;;;;;;;;;;;27.90;50.30;;;;;;5131229;27;19954;-58
2021/07/02 06:33:26;;;;;;;;;;;27.90;50.30;;;;;;5119812;27;19924;-59
2021/07/02 06:35:53;;;;;;;;;;;27.90;50.40;;;;;;5119376;27;20336;-57
2021/07/02 06:38:20;;;;;;;;;;;27.90;50.40;;;;;;5115452;27;20380;-58
2021/07/02 06:40:48;;;;;;;;;;;27.90;50.40;;;;;;5124761;27;19952;-58
2021/07/02 06:43:15;;;;;;;;;;;27.90;50.40;;;;;;5129980;27;20288;-58
2021/07/02 06:45:42;;;;;;;;;;;27.90;50.30;;;;;;5129812;27;20406;-58
2021/07/02 06:48:09;;;;;;;;;;;27.90;50.30;;;;;;5130960;28;19923;-58
2021/07/02 06:50:37;;;;;;;;;;;27.90;50.30;;;;;;5131309;28;19923;-58
2021/07/02 06:53:06;;;;;;;;;;;27.90;50.30;;;;;;5131413;28;19931;-58
2021/07/02 06:55:33;;;;;;;;;;;28.00;50.30;;;;;;5133168;28;19958;-59
2021/07/02 06:58:00;;;;;;;;;;;28.00;50.20;;;;;;5130104;28;19985;-59
2021/07/02 07:00:28;;;;;;;;;;;28.00;50.20;;;;;;5129399;28;19976;-59
2021/07/02 07:02:56;;;;;;;;;;;28.10;50.20;;;;;;5130815;28;19924;-59
2021/07/02 07:05:23;;;;;;;;;;;28.10;50.10;;;;;;5130423;28;19923;-59
2021/07/02 07:07:50;;;;;;;;;;;28.10;50.10;;;;;;5130965;28;19931;-59
2021/07/02 07:10:17;;;;;;;;;;;28.10;50.10;;;;;;5132638;28;20022;-59
2021/07/02 07:12:44;;;;;;;;;;;28.10;50.10;;;;;;5132173;28;20402;-59
2021/07/02 07:15:12;;;;;;;;;;;28.10;50.00;;;;;;5131488;28;19930;-57
2021/07/02 07:17:39;;;;;;;;;;;28.10;50.00;;;;;;5132908;28;20298;-55
2021/07/02 07:20:06;;;;;;;;;;;28.10;50.00;;;;;;5117382;28;19924;-60
2021/07/02 07:22:33;;;;;;;;;;;28.10;50.00;;;;;;5129167;28;19924;-50
2021/07/02 07:25:00;;;;;;;;;;;28.10;50.00;;;;;;5132141;28;19923;-59
2021/07/02 07:27:27;;;;;;;;;;;28.10;49.90;;;;;;5129125;28;19959;-59
2021/07/02 07:29:55;;;;;;;;;;;28.10;49.90;;;;;;5130994;28;19924;-59
2021/07/02 07:32:22;;;;;;;;;;;28.10;50.00;;;;;;5130566;28;19935;-53
2021/07/02 07:34:58;;;;;;;;;;;28.10;50.00;;;;;;5133506;28;19924;-59
2021/07/02 07:37:28;;;;;;;;;;;28.10;50.00;;;;;;5115162;28;20332;-58
2021/07/02 07:39:55;;;;;;;;;;;28.20;50.00;;;;;;5122596;28;19923;-59
2021/07/02 07:42:22;;;;;;;;;;;28.20;50.00;;;;;;5131264;28;19925;-59
2021/07/02 07:44:49;;;;;;;;;;;28.20;50.00;;;;;;5131584;28;19928;-59
2021/07/02 07:47:16;;;;;;;;;;;28.20;50.00;;;;;;5115807;27;19927;-59
2021/07/02 07:49:44;;;;;;;;;;;28.20;49.90;;;;;;5133738;27;19923;-59
2021/07/02 07:52:18;;;;;;;;;;;28.20;49.90;;;;;;5113195;28;19924;-57
2021/07/02 07:54:45;;;;;;;;;;;28.20;49.80;;;;;;5118359;27;19969;-58
2021/07/02 07:57:12;;;;;;;;;;;28.20;49.80;;;;;;5122004;27;20351;-59
2021/07/02 07:59:39;;;;;;;;;;;28.20;49.80;;;;;;5135181;27;20374;-58
2021/07/02 08:02:06;;;;;;;;;;;28.20;49.80;;;;;;5133912;27;19967;-59
2021/07/02 08:04:34;;;;;;;;;;;28.30;49.80;;;;;;5132752;27;19931;-59
2021/07/02 08:07:01;;;;;;;;;;;28.30;49.80;;;;;;5132951;27;20330;-59
2021/07/02 08:09:32;;;;;;;;;;;28.30;49.80;;;;;;5134104;27;20398;-59
2021/07/02 08:11:59;;;;;;;;;;;28.30;49.80;;;;;;5116107;28;19924;-59
2021/07/02 08:14:26;;;;;;;;;;;28.30;49.80;;;;;;5116021;27;19976;-59
2021/07/02 08:16:53;;;;;;;;;;;28.30;49.80;;;;;;5134709;27;20268;-59
2021/07/02 08:19:20;;;;;;;;;;;28.30;49.80;;;;;;5118213;27;20448;-59
2021/07/02 08:21:47;;;;;;;;;;;28.30;49.80;;;;;;5133786;27;20374;-59
2021/07/02 08:24:14;;;;;;;;;;;28.30;49.80;;;;;;5133335;27;19978;-59
2021/07/02 08:26:42;;;;;;;;;;;28.30;49.80;;;;;;5134048;27;19928;-59
2021/07/02 08:29:28;;;;;;;;;;;28.30;49.80;;;;;;5134417;27;20401;-59
2021/07/02 08:31:56;;;;;;;;;;;28.30;49.70;;;;;;5132210;27;20014;-59
2021/07/02 08:34:23;;;;;;;;;;;28.40;49.70;;;;;;5133335;27;19945;-59
2021/07/02 08:36:50;;;;;;;;;;;28.40;49.70;;;;;;5132468;27;19924;-59
2021/07/02 08:39:18;;;;;;;;;;;28.40;49.60;;;;;;5132315;27;19924;-59
2021/07/02 08:41:45;;;;;;;;;;;28.50;49.50;;;;;;5132037;27;19967;-59
2021/07/02 08:44:12;;;;;;;;;;;28.50;49.50;;;;;;5134590;27;20010;-59
2021/07/02 08:46:42;;;;;;;;;;;28.50;49.40;;;;;;5132892;27;19924;-59
2021/07/02 08:49:27;;;;;;;;;;;28.50;49.40;;;;;;5120203;27;19923;-59
2021/07/02 08:51:55;;;;;;;;;;;28.60;49.40;;;;;;5133666;27;19928;-59
2021/07/02 08:54:22;;;;;;;;;;;28.50;49.40;;;;;;5134186;27;19924;-59
2021/07/02 08:57:07;;;;;;;;;;;28.50;49.40;;;;;;5133897;27;19949;-59
2021/07/02 08:59:34;;;;;;;;;;;28.50;49.40;;;;;;5123009;27;19928;-59
2021/07/02 09:02:01;;;;;;;;;;;28.50;49.50;;;;;;5117101;27;19969;-59
2021/07/02 09:04:35;;;;;;;;;;;28.50;49.40;;;;;;5125799;27;20018;-59
2021/07/02 09:07:04;;;;;;;;;;;28.50;49.50;;;;;;5124227;27;20275;-59
2021/07/02 09:09:49;;;;;;;;;;;28.50;49.50;;;;;;5118015;27;19928;-59
2021/07/02 09:12:18;;;;;;;;;;;28.50;49.50;;;;;;5126815;27;19927;-57
2021/07/02 09:14:57;;;;;;;;;;;28.50;49.50;;;;;;5123752;27;19989;-58
2021/07/02 09:17:25;;;;;;;;;;;28.50;49.50;;;;;;5115877;27;20357;-57
2021/07/02 09:20:02;;;;;;;;;;;28.40;49.50;;;;;;5127138;27;19992;-58
2021/07/02 09:22:38;;;;;;;;;;;28.40;49.50;;;;;;5133729;27;20375;-58
2021/07/02 09:25:09;;;;;;;;;;;28.40;49.50;;;;;;5131076;27;20002;-59
2021/07/02 09:27:39;;;;;;;;;;;28.40;49.50;;;;;;5133733;27;19955;-58
2021/07/02 09:30:08;;;;;;;;;;;28.40;49.50;;;;;;5132440;27;19923;-58
2021/07/02 09:32:47;;;;;;;;;;;28.40;49.60;;;;;;5133496;27;19923;-58
2021/07/02 09:35:16;;;;;;;;;;;28.40;49.60;;;;;;5131852;27;19957;-58
2021/07/02 09:37:54;;;;;;;;;;;28.40;49.70;;;;;;5121895;27;19966;-59
2021/07/02 09:40:22;;;;;;;;;;;28.40;49.60;;;;;;5130835;27;19952;-59
2021/07/02 09:43:00;;;;;;;;;;;28.40;49.70;;;;;;5130970;27;19988;-59
2021/07/02 09:45:27;;;;;;;;;;;28.40;50.30;;;;;;5116348;27;20407;-59
2021/07/02 09:47:55;;;;;;;;;;;28.40;49.70;;;;;;5131791;27;19967;-59
2021/07/02 09:50:24;;;;;;;;;;;28.40;49.70;;;;;;5131735;27;19973;-59
2021/07/02 09:52:59;;;;;;;;;;;28.40;49.70;;;;;;5134315;27;19924;-59
2021/07/02 09:55:27;;;;;;;;;;;28.40;49.70;;;;;;5132508;27;19923;-58
2021/07/02 09:58:04;;;;;;;;;;;28.40;49.70;;;;;;5133147;27;19931;-59
2021/07/02 10:00:32;;;;;;;;;;;28.40;49.70;;;;;;5133221;27;20324;-59
2021/07/02 10:03:00;;;;;;;;;;;28.40;49.70;;;;;;5132561;27;19945;-59
2021/07/02 10:05:27;;;;;;;;;;;28.40;49.70;;;;;;5130710;27;19984;-59
2021/07/02 10:07:58;;;;;;;;;;;28.40;49.70;;;;;;5132146;27;19928;-58
2021/07/02 10:10:25;;;;;;;;;;;28.40;49.70;;;;;;5133587;27;19923;-59
2021/07/02 10:12:56;;;;;;;;;;;28.40;49.70;;;;;;5130781;27;19996;-59
2021/07/02 10:15:24;;;;;;;;;;;28.40;49.70;;;;;;5130572;27;19993;-59
2021/07/02 10:17:52;;;;;;;;;;;28.40;49.70;;;;;;5131656;27;19967;-57
2021/07/02 10:20:19;;;;;;;;;;;28.40;49.70;;;;;;5114828;27;19968;-59
2021/07/02 10:22:47;;;;;;;;;;;28.40;49.70;;;;;;5131812;27;19927;-59
2021/07/02 10:25:17;;;;;;;;;;;28.40;49.70;;;;;;5132687;27;20359;-59
2021/07/02 10:27:44;;;;;;;;;;;28.40;49.70;;;;;;5131642;27;19958;-59
2021/07/02 10:30:13;;;;;;;;;;;28.40;49.70;;;;;;5114776;27;19930;-59
2021/07/02 10:32:41;;;;;;;;;;;28.40;49.70;;;;;;5130954;27;19987;-59
2021/07/02 10:35:12;;;;;;;;;;;28.40;49.70;;;;;;5130564;27;20006;-59
2021/07/02 10:37:41;;;;;;;;;;;28.40;49.70;;;;;;5128725;27;19969;-59
2021/07/02 10:40:21;;;;;;;;;;;28.40;49.70;;;;;;5131397;27;19923;-59
2021/07/02 10:43:06;;;;;;;;;;;28.40;49.70;;;;;;5132004;27;20002;-59
2021/07/02 10:45:33;;;;;;;;;;;28.40;49.70;;;;;;5131616;27;19923;-59
2021/07/02 10:48:00;;;;;;;;;;;28.40;49.70;;;;;;5131035;28;19924;-59
2021/07/02 10:50:34;;;;;;;;;;;28.40;49.70;;;;;;5131882;28;19959;-59
2021/07/02 10:53:20;;;;;;;;;;;28.40;49.70;;;;;;5115800;28;19923;-59
2021/07/02 10:55:47;;;;;;;;;;;28.40;49.70;;;;;;5129400;28;20340;-58
2021/07/02 10:58:13;;;;;;;;;;;28.40;49.60;;;;;;5132170;28;20501;-59
2021/07/02 11:00:59;;;;;;;;;;;28.40;49.60;;;;;;5129598;28;19923;-59
2021/07/02 11:03:26;;;;;;;;;;;28.40;49.60;;;;;;5132437;28;19923;-59
2021/07/02 11:05:53;;;;;;;;;;;28.40;49.50;;;;;;5129999;28;19923;-59
2021/07/02 11:08:39;;;;;;;;;;;28.40;49.50;;;;;;5115333;28;19969;-59
2021/07/02 11:11:06;;;;;;;;;;;28.50;49.50;;;;;;5129566;28;20367;-59
2021/07/02 11:13:52;;;;;;;;;;;28.50;49.40;;;;;;5130652;28;20299;-59
2021/07/02 11:16:19;;;;;;;;;;;28.60;49.30;;;;;;5131047;28;19923;-57
2021/07/02 11:18:46;;;;;;;;;;;28.60;49.20;;;;;;5131018;28;19967;-57
2021/07/02 11:21:14;;;;;;;;;;;28.70;49.20;;;;;;5119073;28;19931;-58
2021/07/02 11:23:41;;;;;;;;;;;28.70;49.20;;;;;;5117795;27;19923;-58
2021/07/02 11:26:11;;;;;;;;;;;28.70;49.10;;;;;;5120224;27;19974;-57
2021/07/02 11:28:49;;;;;;;;;;;28.80;49.00;;;;;;5118979;27;19928;-57
2021/07/02 11:31:18;;;;;;;;;;;28.80;49.00;;;;;;5102010;28;20006;-58
2021/07/02 11:33:45;;;;;;;;;;;28.80;48.90;;;;;;5130367;27;19927;-57
2021/07/02 11:36:13;;;;;;;;;;;28.80;48.90;;;;;;5124101;27;19930;-57
2021/07/02 11:38:45;;;;;;;;;;;28.90;48.90;;;;;;5117536;27;19924;-58
2021/07/02 11:41:18;;;;;;;;;;;28.90;48.80;;;;;;5127724;27;19923;-58
2021/07/02 11:43:45;;;;;;;;;;;28.90;48.80;;;;;;5134547;27;20022;-58
2021/07/02 11:46:13;;;;;;;;;;;28.90;48.90;;;;;;5135288;27;19930;-58
2021/07/02 11:48:42;;;;;;;;;;;28.80;48.80;;;;;;5135441;27;19923;-58
2021/07/02 11:51:12;;;;;;;;;;;28.80;48.80;;;;;;5133318;27;20310;-58
2021/07/02 11:53:44;;;;;;;;;;;28.80;48.80;;;;;;5128203;27;19962;-58
2021/07/02 11:56:17;;;;;;;;;;;28.80;48.80;;;;;;5106189;27;20325;-58
2021/07/02 11:58:49;;;;;;;;;;;28.80;48.80;;;;;;5134194;27;19970;-59
2021/07/02 12:01:23;;;;;;;;;;;28.80;48.80;;;;;;5133868;27;19924;-58
2021/07/02 12:03:51;;;;;;;;;;;28.80;48.80;;;;;;5134245;27;19930;-58
2021/07/02 12:06:26;;;;;;;;;;;28.80;48.80;;;;;;5115797;27;19984;-58
2021/07/02 12:09:04;;;;;;;;;;;28.80;49.00;;;;;;5132756;27;19924;-58
2021/07/02 12:11:36;;;;;;;;;;;28.80;49.00;;;;;;5132836;27;20260;-58
2021/07/02 12:14:05;;;;;;;;;;;28.80;49.00;;;;;;5132646;27;20390;-58
2021/07/02 12:16:42;;;;;;;;;;;28.80;49.00;;;;;;5135384;27;19931;-58
2021/07/02 12:19:15;;;;;;;;;;;28.80;49.10;;;;;;5135395;27;19935;-58
2021/07/02 12:22:05;;;;;;;;;;;28.80;49.10;;;;;;5134626;27;19967;-58
2021/07/02 12:24:33;;;;;;;;;;;28.80;49.10;;;;;;5125842;27;19960;-58
2021/07/02 12:27:02;;;;;;;;;;;28.70;49.10;;;;;;5122587;27;20018;-58
2021/07/02 12:29:30;;;;;;;;;;;28.70;49.10;;;;;;5133426;27;19954;-58
2021/07/02 12:31:59;;;;;;;;;;;28.70;49.10;;;;;;5134340;27;19927;-58
2021/07/02 12:34:37;;;;;;;;;;;28.70;49.10;;;;;;5134496;27;19924;-58
2021/07/02 12:37:06;;;;;;;;;;;28.70;49.10;;;;;;5123203;27;19966;-58
2021/07/02 12:39:43;;;;;;;;;;;28.70;49.10;;;;;;5132107;27;20371;-58
2021/07/02 12:42:15;;;;;;;;;;;28.70;49.10;;;;;;5134226;27;19923;-58
2021/07/02 12:44:43;;;;;;;;;;;28.80;49.20;;;;;;5134466;27;19959;-58
2021/07/02 12:47:11;;;;;;;;;;;28.80;49.20;;;;;;5131809;27;19924;-58
2021/07/02 12:49:50;;;;;;;;;;;28.80;49.20;;;;;;5132034;27;19927;-58
2021/07/02 12:54:47;;;;;;;;;;;28.80;49.20;;;;;;5133094;27;19976;-58
2021/07/02 12:57:20;;;;;;;;;;;28.80;49.20;;;;;;5132842;27;19923;-59
2021/07/02 12:59:49;;;;;;;;;;;28.80;49.20;;;;;;5113261;27;19923;-58
2021/07/02 13:02:26;;;;;;;;;;;28.80;49.20;;;;;;5115823;27;19928;-58
2021/07/02 13:04:54;;;;;;;;;;;28.80;49.20;;;;;;5133270;27;19923;-58
2021/07/02 13:07:21;;;;;;;;;;;28.80;49.20;;;;;;5131979;27;19932;-58
2021/07/02 13:10:04;;;;;;;;;;;28.80;49.20;;;;;;5134543;27;19928;-60
2021/07/02 13:12:30;;;;;;;;;;;28.80;49.20;;;;;;5117107;27;19924;-58
2021/07/02 13:15:08;;;;;;;;;;;28.80;49.20;;;;;;5115934;27;19976;-58
2021/07/02 13:17:43;;;;;;;;;;;28.80;49.20;;;;;;5097989;27;19928;-58
2021/07/02 13:20:12;;;;;;;;;;;28.80;49.20;;;;;;5117659;27;19958;-59
2021/07/02 13:22:40;;;;;;;;;;;28.80;49.20;;;;;;5134969;27;19924;-58
2021/07/02 13:25:10;;;;;;;;;;;28.80;49.20;;;;;;5124695;27;19931;-59
2021/07/02 13:27:37;;;;;;;;;;;28.80;49.20;;;;;;5134370;27;20419;-58
2021/07/02 13:30:07;;;;;;;;;;;28.80;49.10;;;;;;5133011;27;19973;-58
2021/07/02 13:32:34;;;;;;;;;;;28.80;49.10;;;;;;5132689;27;20374;-58
2021/07/02 13:35:02;;;;;;;;;;;28.90;49.10;;;;;;5135318;27;19930;-58
2021/07/02 13:37:30;;;;;;;;;;;28.90;49.10;;;;;;5130578;27;19928;-58
2021/07/02 13:39:57;;;;;;;;;;;28.90;49.10;;;;;;5133315;27;19924;-57
2021/07/02 13:42:32;;;;;;;;;;;28.90;49.10;;;;;;5131115;27;19923;-58
2021/07/02 13:45:04;;;;;;;;;;;28.90;49.10;;;;;;5131516;27;20294;-58
2021/07/02 13:47:32;;;;;;;;;;;28.90;49.10;;;;;;5132087;27;19923;-57
2021/07/02 13:50:01;;;;;;;;;;;28.90;49.10;;;;;;5132131;27;20035;-58
2021/07/02 13:52:29;;;;;;;;;;;28.90;49.10;;;;;;5133404;27;19994;-57
2021/07/02 13:54:57;;;;;;;;;;;28.90;49.10;;;;;;5133141;27;19923;-57
2021/07/02 13:57:25;;;;;;;;;;;28.90;49.10;;;;;;5130827;27;19931;-58
2021/07/02 13:59:54;;;;;;;;;;;28.90;49.20;;;;;;5131950;27;19972;-58
2021/07/02 14:02:21;;;;;;;;;;;28.90;49.20;;;;;;5123949;27;19935;-58
2021/07/02 14:04:48;;;;;;;;;;;28.80;49.10;;;;;;5108449;27;19969;-58
2021/07/02 14:07:15;;;;;;;;;;;28.90;49.30;;;;;;5133194;27;19924;-57
2021/07/02 14:09:42;;;;;;;;;;;28.80;49.20;;;;;;5133169;27;20279;-58
2021/07/02 14:12:09;;;;;;;;;;;28.80;49.30;;;;;;5131770;27;19988;-59
2021/07/02 14:14:36;;;;;;;;;;;28.80;49.40;;;;;;5132465;27;20403;-58
2021/07/02 14:17:05;;;;;;;;;;;28.80;49.40;;;;;;5114768;27;20383;-59
2021/07/02 14:19:32;;;;;;;;;;;28.80;49.40;;;;;;5131684;27;19982;-58
2021/07/02 14:21:59;;;;;;;;;;;28.80;49.50;;;;;;5130343;27;19996;-58
2021/07/02 14:24:26;;;;;;;;;;;28.70;49.50;;;;;;5112148;27;20325;-58
2021/07/02 14:26:53;;;;;;;;;;;28.70;49.50;;;;;;5131274;27;20371;-58